createdAt,value
2022-12-22T00:01:42.325Z,5.00
2022-12-22T00:04:31.649Z,4.90
2022-12-22T00:07:17.137Z,4.90
2022-12-22T00:10:02.556Z,4.90
2022-12-22T00:12:48.162Z,4.90
2022-12-22T00:15:35.695Z,4.90
2022-12-22T00:18:22.131Z,4.90
2022-12-22T00:21:07.565Z,4.90
2022-12-22T00:23:53.061Z,4.80
2022-12-22T00:26:38.677Z,4.90
2022-12-22T00:29:24.135Z,4.90
2022-12-22T00:32:09.675Z,5.00
2022-12-22T00:35:01.784Z,5.00
2022-12-22T00:37:54.426Z,5.00
2022-12-22T00:40:45.378Z,5.00
2022-12-22T00:43:31.332Z,5.00
2022-12-22T00:46:19.805Z,5.10
2022-12-22T00:49:05.670Z,5.00
2022-12-22T00:51:51.868Z,5.00
2022-12-22T00:54:38.635Z,5.00
2022-12-22T00:57:35.327Z,4.90
2022-12-22T01:00:20.679Z,5.00
2022-12-22T01:03:06.117Z,4.90
2022-12-22T01:05:51.384Z,4.90
2022-12-22T01:08:36.772Z,4.90
2022-12-22T01:11:22.229Z,4.90
2022-12-22T01:14:09.807Z,4.90
2022-12-22T01:16:55.215Z,4.90
2022-12-22T01:19:43.341Z,4.90
2022-12-22T01:22:34.284Z,4.90
2022-12-22T01:25:19.834Z,4.90
2022-12-22T01:28:05.401Z,5.00
2022-12-22T01:30:51.078Z,5.00
2022-12-22T01:33:36.274Z,5.00
2022-12-22T01:36:21.742Z,5.00
2022-12-22T01:39:07.288Z,4.90
2022-12-22T01:41:52.847Z,5.00
2022-12-22T01:44:38.272Z,5.00
2022-12-22T01:47:48.594Z,5.10
2022-12-22T01:50:36.622Z,5.10
2022-12-22T01:53:26.029Z,5.10
2022-12-22T01:56:12.572Z,5.10
2022-12-22T01:59:07.413Z,5.10
2022-12-22T02:01:53.814Z,5.20
2022-12-22T02:04:45.358Z,5.10
2022-12-22T02:07:37.405Z,5.10
2022-12-22T02:10:26.034Z,5.20
2022-12-22T02:13:30.060Z,5.10
2022-12-22T02:16:34.721Z,5.20
2022-12-22T02:19:50.893Z,5.20
2022-12-22T02:23:11.412Z,5.20
2022-12-22T02:26:21.886Z,5.20
2022-12-22T02:29:08.346Z,5.20
2022-12-22T02:31:58.850Z,5.20
2022-12-22T02:34:46.877Z,5.20
2022-12-22T02:37:48.129Z,5.20
2022-12-22T02:40:43.078Z,5.30
2022-12-22T02:43:56.169Z,5.30
2022-12-22T02:46:53.407Z,5.30
2022-12-22T02:49:44.024Z,5.30
2022-12-22T02:52:42.217Z,5.30
2022-12-22T02:55:28.384Z,5.30
2022-12-22T02:58:17.730Z,5.40
2022-12-22T03:01:06.218Z,5.40
2022-12-22T03:03:53.843Z,5.40
2022-12-22T03:06:41.744Z,5.40
2022-12-22T03:09:27.161Z,5.40
2022-12-22T03:12:12.820Z,5.50
2022-12-22T03:14:58.281Z,5.70
2022-12-22T03:17:43.946Z,5.70
2022-12-22T03:20:33.836Z,5.70
2022-12-22T03:23:24.949Z,5.80
2022-12-22T03:25:54.764Z,5.90
2022-12-22T03:28:24.758Z,5.90
2022-12-22T03:31:02.974Z,6.00
2022-12-22T03:33:32.967Z,6.10
2022-12-22T03:36:00.423Z,6.30
2022-12-22T03:38:27.256Z,6.80
2022-12-22T03:40:58.961Z,7.30
2022-12-22T03:43:45.338Z,7.70
2022-12-22T03:46:17.183Z,7.90
2022-12-22T03:49:10.256Z,8.10
2022-12-22T03:51:47.786Z,8.30
2022-12-22T03:54:18.197Z,8.40
2022-12-22T03:56:47.868Z,8.50
2022-12-22T03:59:18.426Z,8.70
2022-12-22T04:01:51.352Z,9.00
2022-12-22T04:04:23.394Z,9.20
2022-12-22T04:06:50.422Z,9.20
2022-12-22T04:09:17.323Z,9.20
2022-12-22T04:12:02.556Z,9.20
2022-12-22T04:14:34.496Z,9.20
2022-12-22T04:17:05.880Z,9.30
2022-12-22T04:19:33.200Z,9.50
2022-12-22T04:21:59.965Z,9.50
2022-12-22T04:24:26.787Z,9.60
2022-12-22T04:26:55.975Z,9.70
2022-12-22T04:29:22.808Z,9.80
2022-12-22T04:31:51.798Z,9.80
2022-12-22T04:34:18.585Z,9.80
2022-12-22T04:36:47.799Z,9.70
2022-12-22T04:39:16.731Z,9.50
2022-12-22T04:41:45.748Z,9.40
2022-12-22T04:44:14.948Z,9.30
2022-12-22T04:46:41.713Z,9.40
2022-12-22T04:49:08.460Z,9.50
2022-12-22T04:51:35.171Z,9.50
2022-12-22T04:54:01.905Z,9.50
2022-12-22T04:56:30.947Z,9.40
2022-12-22T04:58:59.931Z,9.30
2022-12-22T05:01:29.339Z,9.40
2022-12-22T05:03:56.158Z,9.40
2022-12-22T05:06:22.849Z,9.30
2022-12-22T05:08:49.746Z,9.40
2022-12-22T05:11:16.415Z,9.40
2022-12-22T05:13:43.179Z,9.50
2022-12-22T05:16:15.089Z,9.50
2022-12-22T05:18:43.461Z,9.30
2022-12-22T05:21:16.064Z,9.20
2022-12-22T05:23:44.620Z,9.20
2022-12-22T05:26:11.954Z,9.40
2022-12-22T05:28:38.700Z,9.40
2022-12-22T05:31:14.133Z,9.30
2022-12-22T05:33:45.698Z,9.50
2022-12-22T05:36:12.576Z,9.60
2022-12-22T05:38:40.360Z,9.70
2022-12-22T05:41:08.289Z,9.90
2022-12-22T05:43:35.319Z,10.10
2022-12-22T05:46:10.240Z,10.20
2022-12-22T05:48:40.457Z,10.20
2022-12-22T05:51:13.470Z,10.30
2022-12-22T05:53:42.819Z,10.20
2022-12-22T05:56:09.635Z,10.30
2022-12-22T05:58:38.527Z,10.20
2022-12-22T06:01:06.027Z,10.20
2022-12-22T06:03:37.219Z,10.30
2022-12-22T06:06:09.566Z,10.30
2022-12-22T06:08:38.966Z,10.30
2022-12-22T06:11:10.878Z,10.30
2022-12-22T06:13:40.008Z,10.30
2022-12-22T06:16:09.526Z,10.30
2022-12-22T06:18:36.272Z,10.30
2022-12-22T06:21:05.690Z,10.20
2022-12-22T06:23:32.387Z,10.20
2022-12-22T06:26:01.077Z,10.10
2022-12-22T06:28:28.943Z,10.20
2022-12-22T06:30:56.229Z,10.10
2022-12-22T06:33:23.067Z,10.00
2022-12-22T06:35:57.547Z,9.80
2022-12-22T06:38:26.522Z,9.60
2022-12-22T06:40:53.187Z,9.40
2022-12-22T06:43:22.396Z,9.30
2022-12-22T06:45:49.146Z,9.00
2022-12-22T06:48:18.045Z,8.70
2022-12-22T06:50:44.869Z,8.50
2022-12-22T06:53:14.385Z,8.50
2022-12-22T06:55:43.293Z,8.50
2022-12-22T06:58:14.726Z,8.70
2022-12-22T07:00:41.467Z,8.60
2022-12-22T07:03:10.796Z,8.50
2022-12-22T07:05:37.697Z,8.40
2022-12-22T07:08:09.083Z,8.70
2022-12-22T07:10:54.940Z,9.00
2022-12-22T07:13:27.927Z,9.20
2022-12-22T07:16:01.005Z,9.30
2022-12-22T07:18:33.213Z,9.50
2022-12-22T07:21:04.481Z,9.80
2022-12-22T07:23:33.865Z,10.00
2022-12-22T07:26:01.205Z,10.10
2022-12-22T07:28:28.456Z,10.40
2022-12-22T07:30:55.451Z,10.40
2022-12-22T07:33:22.284Z,10.60
2022-12-22T07:35:49.219Z,10.60
2022-12-22T07:38:16.002Z,10.70
2022-12-22T07:40:43.695Z,10.70
2022-12-22T07:43:12.530Z,10.70
2022-12-22T07:45:39.380Z,10.90
2022-12-22T07:48:26.285Z,10.90
2022-12-22T07:50:53.638Z,10.80
2022-12-22T07:53:20.342Z,11.00
2022-12-22T07:55:47.042Z,11.00
2022-12-22T07:58:13.705Z,11.00
2022-12-22T08:00:40.391Z,11.10
2022-12-22T08:03:07.136Z,11.30
2022-12-22T08:05:33.930Z,11.30
2022-12-22T08:08:03.464Z,11.30
2022-12-22T08:10:30.272Z,11.20
2022-12-22T08:12:59.407Z,11.30
2022-12-22T08:15:26.200Z,11.50
2022-12-22T08:17:52.887Z,11.60
2022-12-22T08:20:21.750Z,11.50
2022-12-22T08:22:50.575Z,11.40
2022-12-22T08:25:19.742Z,11.20
2022-12-22T08:27:53.402Z,11.10
2022-12-22T08:30:20.191Z,11.10
2022-12-22T08:32:49.787Z,11.10
2022-12-22T08:35:19.236Z,11.00
2022-12-22T08:37:47.492Z,11.00
2022-12-22T08:40:28.164Z,10.90
2022-12-22T08:42:59.274Z,10.90
2022-12-22T08:45:26.222Z,10.80
2022-12-22T08:47:52.985Z,10.60
2022-12-22T08:50:19.775Z,10.70
2022-12-22T08:52:46.480Z,10.60
2022-12-22T08:55:13.239Z,10.70
2022-12-22T08:57:40.046Z,10.80
2022-12-22T09:00:09.551Z,10.80
2022-12-22T09:02:36.882Z,10.80
2022-12-22T09:05:06.443Z,10.90
2022-12-22T09:07:33.263Z,11.00
2022-12-22T09:09:59.991Z,11.10
2022-12-22T09:12:29.283Z,11.10
2022-12-22T09:14:56.015Z,11.20
2022-12-22T09:17:22.758Z,11.30
2022-12-22T09:19:49.477Z,11.30
2022-12-22T09:22:25.047Z,11.40
2022-12-22T09:24:54.706Z,11.50
2022-12-22T09:27:21.404Z,11.50
2022-12-22T09:29:48.159Z,11.50
2022-12-22T09:32:14.996Z,11.60
2022-12-22T09:34:41.781Z,11.70
2022-12-22T09:37:08.615Z,11.70
2022-12-22T09:39:35.429Z,11.80
2022-12-22T09:42:04.647Z,12.00
2022-12-22T09:44:44.922Z,12.20
2022-12-22T09:47:35.910Z,12.20
2022-12-22T09:50:05.044Z,11.90
2022-12-22T09:52:34.712Z,11.30
2022-12-22T09:55:02.156Z,11.00
2022-12-22T09:57:34.500Z,10.80
2022-12-22T10:00:15.303Z,10.60
2022-12-22T10:03:07.620Z,10.50
2022-12-22T10:06:00.485Z,10.40
2022-12-22T10:08:34.323Z,10.40
2022-12-22T10:11:01.129Z,10.30
2022-12-22T10:13:27.887Z,10.40
2022-12-22T10:15:57.662Z,10.40
2022-12-22T10:18:29.270Z,10.40
2022-12-22T10:21:14.018Z,10.40
2022-12-22T10:23:45.817Z,10.40
2022-12-22T10:26:29.683Z,10.50
2022-12-22T10:29:03.548Z,10.50
2022-12-22T10:31:35.575Z,10.50
2022-12-22T10:34:17.320Z,10.60
2022-12-22T10:36:52.031Z,10.60
2022-12-22T10:39:26.634Z,10.60
2022-12-22T10:41:56.958Z,10.60
2022-12-22T10:44:28.911Z,10.70
2022-12-22T10:46:58.920Z,10.70
2022-12-22T10:52:20.162Z,10.80
2022-12-22T10:54:50.828Z,10.70
2022-12-22T10:57:20.262Z,10.80
2022-12-22T10:59:57.155Z,10.80
2022-12-22T11:02:23.906Z,10.80
2022-12-22T11:04:51.980Z,10.80
2022-12-22T11:07:19.413Z,10.80
2022-12-22T11:09:48.750Z,10.90
2022-12-22T11:12:33.090Z,10.90
2022-12-22T11:15:09.507Z,10.90
2022-12-22T11:17:49.389Z,10.80
2022-12-22T11:20:34.903Z,10.90
2022-12-22T11:23:38.926Z,10.90
2022-12-22T11:26:16.547Z,11.00
2022-12-22T11:29:11.473Z,11.00
2022-12-22T11:32:06.969Z,11.00
2022-12-22T11:34:55.160Z,11.10
2022-12-22T11:37:40.649Z,11.10
2022-12-22T11:40:31.301Z,11.10
2022-12-22T11:43:16.836Z,11.10
2022-12-22T11:45:57.980Z,11.10
2022-12-22T11:49:01.067Z,11.10
2022-12-22T11:51:33.389Z,11.10
2022-12-22T11:54:12.296Z,11.10
2022-12-22T11:56:42.825Z,11.20
2022-12-22T11:59:40.581Z,11.20
2022-12-22T12:02:40.927Z,11.20
2022-12-22T12:05:26.443Z,11.40
2022-12-22T12:07:59.114Z,11.30
2022-12-22T12:10:29.097Z,11.30
2022-12-22T12:13:06.210Z,11.30
2022-12-22T12:16:27.184Z,11.30
2022-12-22T12:19:31.994Z,11.40
2022-12-22T12:22:10.960Z,11.40
2022-12-22T12:25:13.913Z,11.50
2022-12-22T12:28:22.563Z,11.50
2022-12-22T12:30:59.622Z,11.50
2022-12-22T12:33:48.012Z,11.60
2022-12-22T12:36:30.085Z,11.60
2022-12-22T12:39:21.560Z,11.70
2022-12-22T12:41:56.221Z,11.70
2022-12-22T12:44:31.353Z,11.70
2022-12-22T12:47:07.317Z,11.70
2022-12-22T12:49:34.134Z,11.80
2022-12-22T12:52:05.541Z,11.80
2022-12-22T12:54:34.666Z,11.70
2022-12-22T12:57:09.650Z,11.70
2022-12-22T12:59:42.572Z,11.80
2022-12-22T13:02:27.976Z,11.90
2022-12-22T13:05:01.053Z,11.90
2022-12-22T13:08:05.346Z,12.00
2022-12-22T13:10:34.420Z,12.00
2022-12-22T13:13:01.169Z,12.00
2022-12-22T13:15:38.128Z,12.10
2022-12-22T13:18:29.674Z,12.00
2022-12-22T13:21:18.587Z,12.20
2022-12-22T13:24:14.990Z,12.20
2022-12-22T13:26:42.515Z,12.20
2022-12-22T13:29:31.890Z,12.10
2022-12-22T13:32:14.238Z,12.10
2022-12-22T13:37:49.765Z,12.00
2022-12-22T13:40:21.289Z,12.00
2022-12-22T13:42:51.695Z,12.10
2022-12-22T13:45:28.548Z,12.10
2022-12-22T13:47:55.824Z,12.10
2022-12-22T13:50:27.269Z,12.10
2022-12-22T13:52:57.273Z,12.10
2022-12-22T13:55:27.502Z,12.10
2022-12-22T13:58:18.914Z,12.10
2022-12-22T14:01:13.272Z,11.90
2022-12-22T14:04:00.424Z,11.80
2022-12-22T14:06:37.948Z,11.70
2022-12-22T14:09:16.845Z,11.60
2022-12-22T14:11:53.361Z,11.50
2022-12-22T14:14:26.171Z,11.60
2022-12-22T14:17:00.050Z,11.60
2022-12-22T14:19:32.837Z,11.60
2022-12-22T14:22:15.264Z,11.60
2022-12-22T14:24:49.046Z,11.60
2022-12-22T14:27:42.217Z,11.60
2022-12-22T14:30:23.890Z,11.40
2022-12-22T14:32:55.874Z,11.40
2022-12-22T14:35:23.012Z,11.40
2022-12-22T14:37:54.721Z,11.50
2022-12-22T14:40:36.908Z,11.50
2022-12-22T14:43:05.363Z,11.40
2022-12-22T14:45:32.550Z,11.40
2022-12-22T14:47:59.380Z,11.40
2022-12-22T14:50:28.189Z,11.40
2022-12-22T14:52:57.161Z,11.30
2022-12-22T14:55:36.596Z,11.40
2022-12-22T14:58:07.945Z,11.50
2022-12-22T15:00:42.623Z,11.70
2022-12-22T15:03:31.356Z,11.60
2022-12-22T15:06:26.919Z,11.50
2022-12-22T15:09:07.531Z,11.40
2022-12-22T15:11:39.081Z,11.40
2022-12-22T15:14:09.546Z,11.50
2022-12-22T15:16:36.307Z,11.70
2022-12-22T15:19:07.484Z,11.70
2022-12-22T15:21:37.742Z,11.70
2022-12-22T15:24:15.374Z,11.70
2022-12-22T15:26:43.395Z,11.60
2022-12-22T15:29:10.245Z,11.70
2022-12-22T15:31:39.132Z,11.60
2022-12-22T15:34:19.158Z,11.60
2022-12-22T15:36:48.088Z,11.70
2022-12-22T15:39:18.935Z,11.60
2022-12-22T15:41:47.261Z,11.50
2022-12-22T15:44:14.083Z,11.50
2022-12-22T15:46:43.041Z,11.50
2022-12-22T15:49:19.755Z,11.50
2022-12-22T15:51:51.704Z,11.60
2022-12-22T15:54:18.687Z,11.60
2022-12-22T15:56:46.312Z,11.50
2022-12-22T15:59:20.980Z,11.50
2022-12-22T16:01:47.717Z,11.40
2022-12-22T16:04:14.443Z,11.40
2022-12-22T16:06:43.579Z,11.50
2022-12-22T16:09:24.051Z,11.40
2022-12-22T16:11:51.150Z,11.50
2022-12-22T16:14:20.647Z,11.40
2022-12-22T16:16:52.227Z,11.40
2022-12-22T16:19:21.943Z,11.40
2022-12-22T16:21:52.792Z,11.50
2022-12-22T16:24:33.127Z,11.60
2022-12-22T16:27:01.250Z,11.50
2022-12-22T16:29:28.313Z,11.60
2022-12-22T16:32:22.784Z,11.50
2022-12-22T16:34:52.082Z,11.50
2022-12-22T16:37:18.789Z,11.40
2022-12-22T16:39:49.294Z,11.40
2022-12-22T16:45:06.791Z,11.50
2022-12-22T16:47:36.115Z,11.50
2022-12-22T16:50:05.388Z,11.50
2022-12-22T16:52:40.889Z,11.40
2022-12-22T16:55:24.916Z,11.40
2022-12-22T16:57:51.611Z,11.40
2022-12-22T17:00:23.825Z,11.30
2022-12-22T17:03:15.355Z,11.20
2022-12-22T17:05:59.102Z,11.10
2022-12-22T17:08:36.026Z,11.00
2022-12-22T17:11:10.436Z,11.00
2022-12-22T17:13:39.254Z,11.00
2022-12-22T17:16:06.336Z,11.00
2022-12-22T17:18:34.267Z,11.00
2022-12-22T17:21:01.164Z,10.90
2022-12-22T17:23:48.395Z,11.00
2022-12-22T17:26:18.014Z,11.00
2022-12-22T17:28:47.940Z,10.90
2022-12-22T17:31:17.298Z,10.90
2022-12-22T17:33:44.171Z,10.90
2022-12-22T17:36:40.126Z,10.90
2022-12-22T17:39:17.535Z,10.80
2022-12-22T17:41:46.826Z,10.70
2022-12-22T17:44:22.142Z,10.60
2022-12-22T17:46:52.308Z,10.60
2022-12-22T17:49:22.026Z,10.50
2022-12-22T17:51:49.230Z,10.40
2022-12-22T17:54:24.001Z,10.20
2022-12-22T17:56:51.208Z,10.20
2022-12-22T17:59:17.912Z,10.20
2022-12-22T18:01:44.773Z,10.10
2022-12-22T18:04:13.933Z,9.90
2022-12-22T18:06:42.551Z,9.80
2022-12-22T18:09:19.372Z,9.90
2022-12-22T18:11:48.952Z,9.70
2022-12-22T18:14:18.408Z,9.60
2022-12-22T18:16:50.679Z,9.40
2022-12-22T18:19:17.611Z,9.30
2022-12-22T18:21:44.878Z,9.30
2022-12-22T18:24:20.616Z,9.30
2022-12-22T18:26:47.640Z,9.30
2022-12-22T18:29:18.469Z,9.50
2022-12-22T18:31:45.386Z,9.80
2022-12-22T18:34:12.676Z,9.70
2022-12-22T18:36:42.198Z,9.50
2022-12-22T18:39:18.763Z,9.40
2022-12-22T18:41:48.465Z,9.30
2022-12-22T18:44:19.234Z,9.10
2022-12-22T18:46:50.889Z,9.00
2022-12-22T18:49:18.311Z,8.90
2022-12-22T18:51:45.856Z,8.90
2022-12-22T18:54:36.755Z,8.90
2022-12-22T18:57:03.624Z,8.80
2022-12-22T18:59:31.248Z,8.70
2022-12-22T19:02:13.558Z,8.80
2022-12-22T19:04:43.630Z,8.70
2022-12-22T19:07:16.621Z,8.70
2022-12-22T19:09:43.939Z,8.70
2022-12-22T19:12:14.348Z,8.70
2022-12-22T19:14:47.359Z,8.70
2022-12-22T19:17:24.037Z,8.70
2022-12-22T19:19:52.716Z,8.60
2022-12-22T19:22:20.716Z,8.70
2022-12-22T19:24:51.719Z,8.80
2022-12-22T19:27:29.255Z,8.70
2022-12-22T19:30:04.145Z,8.70
2022-12-22T19:32:46.457Z,8.70
2022-12-22T19:35:18.573Z,8.70
2022-12-22T19:37:49.459Z,8.70
2022-12-22T19:40:22.233Z,8.60
2022-12-22T19:42:53.279Z,8.70
2022-12-22T19:45:35.320Z,8.60
2022-12-22T19:48:03.992Z,8.60
2022-12-22T19:50:32.038Z,8.60
2022-12-22T19:53:02.140Z,8.60
2022-12-22T19:55:40.103Z,8.60
2022-12-22T19:58:17.394Z,8.60
2022-12-22T20:00:47.498Z,8.60
2022-12-22T20:03:19.184Z,8.60
2022-12-22T20:05:46.272Z,8.60
2022-12-22T20:08:15.922Z,8.60
2022-12-22T20:10:43.296Z,8.60
2022-12-22T20:13:23.404Z,8.50
2022-12-22T20:15:53.596Z,8.60
2022-12-22T20:18:22.166Z,8.60
2022-12-22T20:21:41.458Z,8.60
2022-12-22T20:24:09.408Z,8.50
2022-12-22T20:26:36.318Z,8.60
2022-12-22T20:29:03.061Z,8.60
2022-12-22T20:31:35.009Z,8.50
2022-12-22T20:34:10.430Z,8.50
2022-12-22T20:36:39.430Z,8.50
2022-12-22T20:39:16.380Z,8.60
2022-12-22T20:41:47.094Z,8.50
2022-12-22T20:44:17.532Z,8.50
2022-12-22T20:46:44.506Z,8.50
2022-12-22T20:49:15.619Z,8.50
2022-12-22T20:51:42.782Z,8.50
2022-12-22T20:54:13.763Z,8.40
2022-12-22T20:56:41.096Z,8.40
2022-12-22T20:59:24.076Z,8.40
2022-12-22T21:01:52.494Z,8.30
2022-12-22T21:04:43.539Z,8.30
2022-12-22T21:07:12.689Z,8.30
2022-12-22T21:12:23.452Z,8.30
2022-12-22T21:14:53.416Z,8.30
2022-12-22T21:17:26.434Z,8.30
2022-12-22T21:19:55.999Z,8.30
2022-12-22T21:22:22.694Z,8.20
2022-12-22T21:24:49.886Z,8.20
2022-12-22T21:27:20.295Z,8.20
2022-12-22T21:29:50.126Z,8.10
2022-12-22T21:32:16.933Z,8.10
2022-12-22T21:34:43.656Z,8.10
2022-12-22T21:37:19.694Z,8.10
2022-12-22T21:39:51.174Z,8.10
2022-12-22T21:42:21.068Z,8.10
2022-12-22T21:44:52.592Z,8.20
2022-12-22T21:47:20.724Z,8.10
2022-12-22T21:49:47.480Z,8.20
2022-12-22T21:52:16.650Z,8.10
2022-12-22T21:54:45.711Z,8.10
2022-12-22T21:57:17.771Z,8.20
2022-12-22T21:59:44.568Z,8.20
2022-12-22T22:02:16.211Z,8.20
2022-12-22T22:04:53.771Z,8.20
2022-12-22T22:07:21.472Z,8.20
2022-12-22T22:09:52.824Z,8.20
2022-12-22T22:12:36.800Z,8.10
2022-12-22T22:15:07.996Z,8.10
2022-12-22T22:17:37.360Z,8.10
2022-12-22T22:20:08.752Z,8.10
2022-12-22T22:22:35.725Z,8.10
2022-12-22T22:25:02.685Z,8.10
2022-12-22T22:27:29.392Z,8.10
2022-12-22T22:29:58.394Z,8.10
2022-12-22T22:32:27.762Z,8.10
2022-12-22T22:34:54.468Z,8.10
2022-12-22T22:37:21.297Z,8.10
2022-12-22T22:39:48.114Z,8.10
2022-12-22T22:42:14.868Z,8.10
2022-12-22T22:44:41.826Z,8.10
2022-12-22T22:47:10.759Z,8.00
2022-12-22T22:49:37.561Z,8.00
2022-12-22T22:52:04.456Z,8.00
2022-12-22T22:54:33.576Z,8.00
2022-12-22T22:57:03.491Z,8.00
2022-12-22T22:59:32.710Z,8.10
2022-12-22T23:01:59.695Z,8.10
2022-12-22T23:04:26.596Z,8.00
2022-12-22T23:06:55.468Z,8.00
2022-12-22T23:09:24.362Z,8.10
2022-12-22T23:11:52.514Z,8.10
2022-12-22T23:14:24.496Z,8.10
2022-12-22T23:16:51.266Z,8.10
2022-12-22T23:19:19.211Z,8.10
2022-12-22T23:21:46.103Z,8.10
2022-12-22T23:24:16.518Z,8.10
2022-12-22T23:26:43.271Z,8.10
2022-12-22T23:29:10.038Z,8.20
2022-12-22T23:31:39.028Z,8.20
2022-12-22T23:34:07.997Z,8.20
2022-12-22T23:36:34.721Z,8.20
2022-12-22T23:39:01.548Z,8.20
2022-12-22T23:41:30.761Z,8.20
2022-12-22T23:44:00.051Z,8.10
2022-12-22T23:46:31.565Z,8.10
2022-12-22T23:49:01.352Z,8.10
2022-12-22T23:51:29.175Z,8.20
2022-12-22T23:53:58.567Z,8.20
2022-12-22T23:56:25.661Z,8.20
2022-12-22T23:58:54.819Z,8.20
